Time;durP1;ratioP1;P1;durP2;ratioP2;P2;SDS_P1;SDS_P2;PMS_P1;PMS_P2;Temp;Humidity;BMP_temperature;BMP_pressure;BME280_temperature;BME280_humidity;BME280_pressure;Samples;Min_cycle;Max_cycle;Signal;HPM_P1;HPM_P2
2022/10/30 00:00:43;;;;;;;25.80;11.15;;;12.70;99.90;;;;;;5046132;28;20123;-72
2022/10/30 00:03:14;;;;;;;26.45;10.23;;;12.60;99.90;;;;;;5046021;28;20025;-71
2022/10/30 00:05:41;;;;;;;27.83;9.60;;;12.60;99.90;;;;;;5044959;28;20041;-71
2022/10/30 00:08:09;;;;;;;41.53;9.75;;;12.60;99.90;;;;;;5047398;28;20402;-72
2022/10/30 00:10:35;;;;;;;21.73;9.25;;;12.60;99.90;;;;;;5046171;28;20033;-71
2022/10/30 00:13:01;;;;;;;21.02;9.15;;;12.50;99.90;;;;;;5045859;28;20078;-72
2022/10/30 00:15:26;;;;;;;21.40;8.90;;;12.50;99.90;;;;;;5047657;28;20102;-72
2022/10/30 00:17:52;;;;;;;33.03;9.68;;;12.40;99.90;;;;;;5045967;28;20111;-72
2022/10/30 00:20:18;;;;;;;24.35;8.15;;;12.40;99.90;;;;;;5047171;28;20816;-71
2022/10/30 00:22:43;;;;;;;20.17;8.43;;;12.40;99.90;;;;;;5046974;28;20062;-71
2022/10/30 00:25:09;;;;;;;20.05;8.10;;;12.30;99.90;;;;;;5045385;28;20041;-72
2022/10/30 00:27:35;;;;;;;19.27;8.75;;;12.30;99.90;;;;;;5046567;28;20039;-70
2022/10/30 00:30:00;;;;;;;25.13;8.13;;;12.30;99.90;;;;;;5046636;28;20028;-71
2022/10/30 00:32:27;;;;;;;19.33;7.75;;;12.20;99.90;;;;;;5046753;28;20388;-72
2022/10/30 00:34:52;;;;;;;22.30;9.50;;;12.20;99.90;;;;;;5044960;28;20554;-71
2022/10/30 00:37:18;;;;;;;21.48;8.13;;;12.10;99.90;;;;;;5047717;28;20032;-72
2022/10/30 00:39:44;;;;;;;23.38;8.68;;;12.00;99.90;;;;;;5044422;28;20481;-71
2022/10/30 00:42:14;;;;;;;17.15;8.10;;;11.90;99.90;;;;;;5047037;28;20469;-72
2022/10/30 00:44:51;;;;;;;23.17;9.40;;;11.90;99.90;;;;;;5045542;28;20029;-71
2022/10/30 00:47:29;;;;;;;18.00;7.95;;;11.90;99.90;;;;;;5048365;28;20045;-71
2022/10/30 00:50:01;;;;;;;20.00;8.00;;;11.90;99.90;;;;;;5037116;28;20025;-72
2022/10/30 00:52:32;;;;;;;28.92;10.93;;;11.90;99.90;;;;;;5046783;28;20106;-72
2022/10/30 00:55:03;;;;;;;29.27;12.77;;;11.90;99.90;;;;;;5043765;28;20108;-72
2022/10/30 00:57:29;;;;;;;28.42;10.40;;;11.90;99.90;;;;;;5045327;28;20395;-72
2022/10/30 00:59:55;;;;;;;23.80;9.68;;;11.90;99.90;;;;;;5047159;28;20098;-72
2022/10/30 01:02:21;;;;;;;22.75;8.75;;;11.90;99.90;;;;;;5045261;28;20041;-71
2022/10/30 01:04:49;;;;;;;24.25;8.40;;;11.90;99.90;;;;;;5041411;28;20647;-71
2022/10/30 01:07:16;;;;;;;17.63;8.63;;;11.90;99.90;;;;;;5046943;28;20040;-72
2022/10/30 01:09:44;;;;;;;18.67;8.60;;;11.80;99.90;;;;;;5045262;28;20498;-72
2022/10/30 01:12:10;;;;;;;19.38;8.75;;;11.80;99.90;;;;;;5045863;28;20036;-72
2022/10/30 01:14:40;;;;;;;28.77;8.65;;;11.80;99.90;;;;;;5045039;28;20033;-70
2022/10/30 01:17:20;;;;;;;17.52;7.85;;;11.70;99.90;;;;;;5047848;28;20110;-71
2022/10/30 01:20:05;;;;;;;24.73;9.20;;;11.70;99.90;;;;;;5046329;28;20040;-72
2022/10/30 01:22:49;;;;;;;20.58;8.15;;;11.70;99.90;;;;;;5045433;28;20037;-71
2022/10/30 01:25:32;;;;;;;18.30;8.52;;;11.60;99.90;;;;;;5044982;28;20062;-72
2022/10/30 01:28:10;;;;;;;18.92;8.02;;;11.60;99.90;;;;;;5030932;28;20021;-72
2022/10/30 01:31:06;;;;;;;28.48;8.68;;;11.60;99.90;;;;;;5044550;28;20033;-72
2022/10/30 01:33:35;;;;;;;20.98;8.25;;;11.50;99.90;;;;;;5045853;28;20035;-71
2022/10/30 01:36:15;;;;;;;17.35;8.75;;;11.50;99.90;;;;;;5046571;28;20041;-72
2022/10/30 01:38:57;;;;;;;20.85;8.15;;;11.40;99.90;;;;;;5043675;28;20056;-70
2022/10/30 01:41:22;;;;;;;23.83;7.90;;;11.30;99.90;;;;;;5045641;28;20106;-71
2022/10/30 01:43:54;;;;;;;20.75;9.38;;;11.20;99.90;;;;;;5045613;28;20060;-71
2022/10/30 01:46:37;;;;;;;17.73;8.35;;;11.20;99.90;;;;;;5047318;28;20810;-71
2022/10/30 01:49:27;;;;;;;28.95;8.68;;;11.20;99.90;;;;;;5044385;28;20032;-71
2022/10/30 01:51:55;;;;;;;23.85;8.88;;;11.20;99.90;;;;;;5045242;28;20040;-71
2022/10/30 01:54:36;;;;;;;20.58;8.65;;;11.20;99.90;;;;;;5046627;28;20170;-72
2022/10/30 01:57:13;;;;;;;21.40;8.32;;;11.20;99.90;;;;;;5046060;28;20032;-71
2022/10/30 01:59:46;;;;;;;21.83;8.13;;;11.20;99.90;;;;;;5040403;28;20533;-72
2022/10/30 02:02:12;;;;;;;18.30;8.50;;;11.30;99.90;;;;;;5045823;28;20064;-71
2022/10/30 02:04:38;;;;;;;19.05;8.57;;;11.30;99.90;;;;;;5045916;28;20033;-72
2022/10/30 02:07:04;;;;;;;24.00;9.07;;;11.30;99.90;;;;;;5046256;28;20448;-71
2022/10/30 02:09:30;;;;;;;29.25;9.35;;;11.30;99.90;;;;;;5046463;28;20104;-70
2022/10/30 02:11:57;;;;;;;19.95;8.60;;;11.20;99.90;;;;;;5047262;28;20032;-72
2022/10/30 02:14:28;;;;;;;20.88;7.95;;;11.20;99.90;;;;;;5049563;28;20047;-71
2022/10/30 02:16:57;;;;;;;20.55;8.38;;;11.20;99.90;;;;;;5047521;28;20419;-72
2022/10/30 02:19:23;;;;;;;16.55;7.68;;;11.10;99.90;;;;;;5050191;28;20104;-72
2022/10/30 02:21:49;;;;;;;20.05;8.07;;;11.10;99.90;;;;;;5048929;28;20128;-72
2022/10/30 02:24:15;;;;;;;21.73;7.75;;;11.00;99.90;;;;;;5049581;28;20036;-72
2022/10/30 02:26:40;;;;;;;15.95;7.47;;;11.00;99.90;;;;;;5046306;28;20021;-70
2022/10/30 02:29:06;;;;;;;18.30;7.57;;;10.90;99.90;;;;;;5048422;28;20095;-71
2022/10/30 02:31:32;;;;;;;17.40;7.82;;;10.90;99.90;;;;;;5049012;28;20470;-72
2022/10/30 02:33:57;;;;;;;20.88;7.85;;;10.90;99.90;;;;;;5047543;28;20028;-71
2022/10/30 02:36:24;;;;;;;19.35;7.32;;;10.80;99.90;;;;;;5049582;28;20496;-72
2022/10/30 02:38:49;;;;;;;21.05;7.82;;;10.90;99.90;;;;;;5046980;28;20086;-71
2022/10/30 02:41:15;;;;;;;15.05;7.30;;;10.90;99.90;;;;;;5047260;28;20033;-71
2022/10/30 02:43:40;;;;;;;18.70;7.55;;;10.80;99.90;;;;;;5047780;28;20040;-71
2022/10/30 02:46:06;;;;;;;21.25;8.27;;;10.80;99.90;;;;;;5048315;28;20053;-71
2022/10/30 02:48:32;;;;;;;17.58;7.35;;;10.80;99.90;;;;;;5053940;28;20025;-71
2022/10/30 02:51:02;;;;;;;14.52;7.30;;;10.70;99.90;;;;;;5047419;28;20036;-70
2022/10/30 02:53:27;;;;;;;17.93;8.37;;;10.60;99.90;;;;;;5050115;28;20110;-72
2022/10/30 02:55:54;;;;;;;15.82;7.38;;;10.70;99.90;;;;;;5050113;28;20493;-71
2022/10/30 02:58:19;;;;;;;22.67;7.47;;;10.60;99.90;;;;;;5048288;28;20556;-71
2022/10/30 03:00:45;;;;;;;20.13;7.68;;;10.60;99.90;;;;;;5046316;28;20064;-71
2022/10/30 03:03:11;;;;;;;13.93;6.70;;;10.60;99.90;;;;;;5047814;28;20132;-71
2022/10/30 03:05:36;;;;;;;22.23;7.03;;;10.60;99.90;;;;;;5030382;28;20586;-70
2022/10/30 03:08:02;;;;;;;14.43;6.55;;;10.50;99.90;;;;;;5047813;28;20025;-71
2022/10/30 03:10:28;;;;;;;19.60;7.85;;;10.40;99.90;;;;;;5047966;28;20033;-71
2022/10/30 03:12:53;;;;;;;18.00;7.75;;;10.40;99.90;;;;;;5046745;28;20396;-71
2022/10/30 03:15:19;;;;;;;19.27;6.82;;;10.40;99.90;;;;;;5047496;28;20048;-71
2022/10/30 03:17:45;;;;;;;15.73;7.10;;;10.40;99.90;;;;;;5047933;28;20064;-70
2022/10/30 03:20:11;;;;;;;16.95;6.78;;;10.40;99.90;;;;;;5047609;28;20037;-71
2022/10/30 03:22:36;;;;;;;21.88;6.88;;;10.40;99.90;;;;;;5048402;28;20032;-72
2022/10/30 03:25:03;;;;;;;19.75;7.75;;;10.30;99.90;;;;;;5047119;28;20288;-71
2022/10/30 03:27:28;;;;;;;17.17;7.18;;;10.40;99.90;;;;;;5047314;28;20051;-72
2022/10/30 03:29:54;;;;;;;14.63;6.38;;;10.40;99.90;;;;;;5044946;28;20116;-72
2022/10/30 03:32:20;;;;;;;16.90;7.15;;;10.40;99.90;;;;;;5047046;28;20089;-71
2022/10/30 03:34:45;;;;;;;18.40;7.57;;;10.40;99.90;;;;;;5045857;28;20083;-71
2022/10/30 03:37:11;;;;;;;18.88;7.68;;;10.50;99.90;;;;;;5048258;28;20029;-71
2022/10/30 03:39:36;;;;;;;19.73;6.88;;;10.50;99.90;;;;;;5046238;28;20474;-71
2022/10/30 03:42:02;;;;;;;17.70;7.38;;;10.50;99.90;;;;;;5048719;28;20040;-72
2022/10/30 03:44:28;;;;;;;26.45;7.15;;;10.50;99.90;;;;;;5046008;28;20083;-71
2022/10/30 03:46:53;;;;;;;21.45;6.95;;;10.50;99.90;;;;;;5062880;28;20053;-72
2022/10/30 03:49:19;;;;;;;16.73;6.85;;;10.60;99.90;;;;;;5045511;28;20305;-71
2022/10/30 03:51:44;;;;;;;20.80;6.78;;;10.50;99.90;;;;;;5047842;28;20123;-70
2022/10/30 03:54:10;;;;;;;21.77;7.57;;;10.30;99.90;;;;;;5046253;28;20044;-71
2022/10/30 03:56:36;;;;;;;22.08;6.68;;;10.10;99.90;;;;;;5047357;28;20028;-71
2022/10/30 03:59:01;;;;;;;19.60;7.03;;;10.10;99.90;;;;;;5046626;28;20109;-71
2022/10/30 04:01:27;;;;;;;24.42;7.07;;;10.10;99.90;;;;;;5047601;28;20037;-71
2022/10/30 04:03:52;;;;;;;23.33;7.88;;;10.10;99.90;;;;;;5045921;28;20029;-70
2022/10/30 04:06:18;;;;;;;26.40;7.50;;;10.10;99.90;;;;;;5038639;28;20025;-71
2022/10/30 04:08:44;;;;;;;12.65;6.18;;;10.10;99.90;;;;;;5039222;28;20033;-71
2022/10/30 04:11:12;;;;;;;14.65;6.68;;;10.00;99.90;;;;;;5045908;28;20071;-71
2022/10/30 04:13:38;;;;;;;18.27;6.45;;;9.90;99.90;;;;;;5045099;28;20450;-72
2022/10/30 04:16:05;;;;;;;15.52;6.57;;;9.80;99.90;;;;;;5043848;28;20043;-71
2022/10/30 04:18:31;;;;;;;17.77;5.97;;;9.80;99.90;;;;;;5046214;28;20532;-70
2022/10/30 04:20:58;;;;;;;19.05;6.43;;;9.80;99.90;;;;;;5045993;28;20041;-71
2022/10/30 04:23:24;;;;;;;15.20;6.03;;;9.80;99.90;;;;;;5044330;28;20029;-71
2022/10/30 04:25:50;;;;;;;15.50;6.40;;;9.70;99.90;;;;;;5044387;28;20166;-69
2022/10/30 04:28:16;;;;;;;17.13;6.13;;;9.70;99.90;;;;;;5037614;28;20029;-69
2022/10/30 04:30:42;;;;;;;14.45;6.38;;;9.70;99.90;;;;;;5038430;28;20037;-70
2022/10/30 04:33:10;;;;;;;22.70;6.97;;;9.70;99.90;;;;;;5034100;28;20667;-70
2022/10/30 04:35:37;;;;;;;16.42;6.72;;;9.60;99.90;;;;;;5038305;28;20029;-68
2022/10/30 04:38:13;;;;;;;17.27;6.88;;;9.70;99.90;;;;;;5033949;28;20029;-70
2022/10/30 04:40:42;;;;;;;13.48;6.70;;;9.80;99.90;;;;;;5037789;28;20117;-70
2022/10/30 04:43:09;;;;;;;19.80;7.50;;;9.90;99.90;;;;;;5047765;28;20032;-69
2022/10/30 04:45:37;;;;;;;17.40;7.00;;;9.90;99.90;;;;;;5053018;28;20052;-66
2022/10/30 04:48:06;;;;;;;20.83;7.22;;;10.00;99.90;;;;;;5053692;28;20033;-66
2022/10/30 04:50:33;;;;;;;23.02;6.70;;;10.00;99.90;;;;;;5053430;28;20029;-67
2022/10/30 04:53:06;;;;;;;19.33;7.50;;;10.10;99.90;;;;;;5053626;28;20090;-66
2022/10/30 04:55:32;;;;;;;18.00;6.72;;;10.20;99.90;;;;;;5045520;28;20086;-68
2022/10/30 04:57:59;;;;;;;14.05;6.07;;;10.20;99.90;;;;;;5036992;28;20037;-69
2022/10/30 05:00:25;;;;;;;9.68;5.63;;;9.90;99.90;;;;;;5037898;28;20148;-68
2022/10/30 05:02:51;;;;;;;16.63;5.82;;;9.70;99.90;;;;;;5035564;28;20591;-68
2022/10/30 05:05:17;;;;;;;16.50;5.75;;;9.60;99.90;;;;;;5039424;28;20025;-68
2022/10/30 05:07:42;;;;;;;20.45;6.35;;;9.50;99.90;;;;;;5039258;28;20547;-68
2022/10/30 05:10:17;;;;;;;15.98;5.90;;;9.50;99.90;;;;;;5035867;28;20116;-68
2022/10/30 05:12:44;;;;;;;17.33;6.20;;;9.50;99.90;;;;;;5036028;28;20044;-69
2022/10/30 05:15:11;;;;;;;13.85;6.10;;;9.60;99.90;;;;;;5040462;28;20072;-69
2022/10/30 05:17:37;;;;;;;16.88;6.53;;;9.60;99.90;;;;;;5036018;28;20915;-68
2022/10/30 05:20:04;;;;;;;13.68;6.22;;;9.60;99.90;;;;;;5040147;28;20111;-69
2022/10/30 05:22:29;;;;;;;18.08;6.32;;;9.70;99.90;;;;;;5037624;28;20033;-68
2022/10/30 05:24:55;;;;;;;13.48;6.32;;;9.70;99.90;;;;;;5039925;28;20037;-68
2022/10/30 05:27:20;;;;;;;15.18;6.88;;;9.70;99.90;;;;;;5035496;28;20053;-70
2022/10/30 05:29:46;;;;;;;20.92;6.43;;;9.70;99.90;;;;;;5039534;28;20041;-68
2022/10/30 05:32:12;;;;;;;17.50;6.57;;;9.80;99.90;;;;;;5034616;28;20041;-68
2022/10/30 05:34:37;;;;;;;19.05;6.53;;;9.80;99.90;;;;;;5039044;28;20444;-69
2022/10/30 05:37:03;;;;;;;15.95;6.60;;;9.80;99.90;;;;;;5040122;28;20059;-69
2022/10/30 05:39:28;;;;;;;15.88;6.70;;;9.90;99.90;;;;;;5038755;28;20040;-70
2022/10/30 05:41:54;;;;;;;17.38;6.70;;;9.90;99.90;;;;;;5036108;28;20675;-69
2022/10/30 05:44:20;;;;;;;15.55;6.68;;;9.90;99.90;;;;;;5042860;28;20041;-68
2022/10/30 05:46:45;;;;;;;18.27;6.35;;;9.90;99.90;;;;;;5041417;28;20048;-69
2022/10/30 05:49:11;;;;;;;17.38;5.97;;;9.90;99.90;;;;;;5041739;28;20037;-69
2022/10/30 05:51:36;;;;;;;14.48;5.63;;;9.80;99.90;;;;;;5040619;28;20520;-68
2022/10/30 05:54:02;;;;;;;19.35;7.70;;;9.80;99.90;;;;;;5048468;28;20497;-68
2022/10/30 05:56:28;;;;;;;17.20;7.75;;;9.80;99.90;;;;;;5068887;28;20472;-68
2022/10/30 05:58:53;;;;;;;26.67;9.98;;;9.70;99.90;;;;;;5050192;28;20040;-69
2022/10/30 06:01:19;;;;;;;30.08;12.10;;;9.70;99.90;;;;;;5050843;28;20033;-69
2022/10/30 06:03:45;;;;;;;25.00;8.02;;;9.70;99.90;;;;;;5050660;28;20565;-70
2022/10/30 06:06:10;;;;;;;24.45;7.05;;;9.50;99.90;;;;;;5050243;28;20083;-69
2022/10/30 06:08:36;;;;;;;16.30;6.50;;;9.40;99.90;;;;;;5050606;28;20056;-70
2022/10/30 06:11:02;;;;;;;16.77;6.95;;;9.50;99.90;;;;;;5051488;28;20032;-69
2022/10/30 06:13:27;;;;;;;15.57;7.47;;;9.50;99.90;;;;;;5056068;28;20057;-68
2022/10/30 06:15:55;;;;;;;18.77;6.95;;;9.50;99.90;;;;;;5047087;28;20069;-69
2022/10/30 06:18:21;;;;;;;17.77;6.82;;;9.50;99.90;;;;;;5048250;28;20033;-69
2022/10/30 06:20:46;;;;;;;23.50;7.10;;;9.50;99.90;;;;;;5046601;28;20148;-69
2022/10/30 06:23:12;;;;;;;13.82;6.60;;;9.40;99.90;;;;;;5047720;28;20037;-69
2022/10/30 06:25:38;;;;;;;16.65;6.28;;;9.40;99.90;;;;;;5047759;28;20457;-67
2022/10/30 06:28:03;;;;;;;16.35;5.97;;;9.50;99.90;;;;;;5048390;28;20122;-68
2022/10/30 06:30:29;;;;;;;18.70;6.65;;;9.50;99.90;;;;;;5050969;28;20064;-70
2022/10/30 06:33:03;;;;;;;16.30;7.03;;;9.50;99.90;;;;;;5049780;28;20033;-71
2022/10/30 06:35:30;;;;;;;15.57;6.88;;;9.60;99.90;;;;;;5050374;28;20026;-69
2022/10/30 06:37:59;;;;;;;13.00;6.78;;;9.60;99.90;;;;;;5049921;28;20043;-71
2022/10/30 06:40:26;;;;;;;14.25;6.35;;;9.70;99.90;;;;;;5048657;28;20068;-70
2022/10/30 06:42:53;;;;;;;19.25;7.03;;;9.70;99.90;;;;;;5049595;28;20094;-68
2022/10/30 06:45:20;;;;;;;18.13;6.88;;;9.80;99.90;;;;;;5050395;28;20059;-68
2022/10/30 06:47:46;;;;;;;18.45;6.70;;;9.80;99.90;;;;;;5059478;28;20056;-69
2022/10/30 06:50:15;;;;;;;14.63;6.20;;;9.70;99.90;;;;;;5049059;28;20299;-69
2022/10/30 06:52:41;;;;;;;16.40;6.15;;;9.70;99.90;;;;;;5049536;28;20029;-70
2022/10/30 06:55:07;;;;;;;13.20;6.00;;;9.70;99.90;;;;;;5047174;28;20739;-70
2022/10/30 06:57:33;;;;;;;18.73;5.90;;;9.60;99.90;;;;;;5044044;28;20032;-69
2022/10/30 06:59:58;;;;;;;14.25;6.30;;;9.50;99.90;;;;;;5047691;28;20460;-71
2022/10/30 07:02:24;;;;;;;18.73;6.43;;;9.50;99.90;;;;;;5046139;28;20191;-69
2022/10/30 07:04:50;;;;;;;16.52;6.70;;;9.60;99.90;;;;;;5049305;28;20029;-69
2022/10/30 07:07:16;;;;;;;26.08;7.30;;;9.60;99.90;;;;;;5048235;28;20650;-69
2022/10/30 07:09:42;;;;;;;14.63;6.88;;;9.70;99.90;;;;;;5047863;28;20108;-70
2022/10/30 07:12:08;;;;;;;18.67;6.03;;;9.80;99.90;;;;;;5048608;28;20025;-69
2022/10/30 07:14:35;;;;;;;17.42;6.75;;;9.90;99.90;;;;;;5047380;28;20040;-69
2022/10/30 07:17:01;;;;;;;16.25;6.43;;;10.00;99.90;;;;;;5045361;28;20777;-71
2022/10/30 07:19:26;;;;;;;16.23;6.47;;;10.00;99.90;;;;;;5047669;28;20041;-69
2022/10/30 07:21:52;;;;;;;21.20;6.97;;;10.20;99.90;;;;;;5047479;28;20492;-69
2022/10/30 07:24:18;;;;;;;14.73;6.45;;;10.20;99.90;;;;;;5038401;28;20056;-71
2022/10/30 07:26:44;;;;;;;19.95;7.05;;;10.30;99.90;;;;;;5028455;28;20033;-71
2022/10/30 07:29:09;;;;;;;20.30;6.55;;;10.40;99.90;;;;;;5036568;28;20458;-72
2022/10/30 07:31:35;;;;;;;15.10;6.20;;;10.40;99.90;;;;;;5040357;28;20052;-72
2022/10/30 07:34:01;;;;;;;10.20;5.22;;;10.50;99.90;;;;;;5026341;28;20033;-71
2022/10/30 07:36:26;;;;;;;14.40;5.72;;;10.60;99.90;;;;;;5029369;28;20029;-72
2022/10/30 07:38:52;;;;;;;10.27;5.47;;;10.60;99.90;;;;;;5039381;28;20451;-70
2022/10/30 07:41:19;;;;;;;16.40;6.10;;;10.60;99.90;;;;;;5022178;28;20470;-72
2022/10/30 07:43:45;;;;;;;15.50;6.20;;;10.70;99.90;;;;;;5033703;28;20041;-71
2022/10/30 07:46:11;;;;;;;17.90;5.40;;;10.80;99.90;;;;;;5036927;28;20497;-72
2022/10/30 07:48:37;;;;;;;12.55;5.57;;;10.90;99.90;;;;;;5033839;28;20104;-71
2022/10/30 07:51:02;;;;;;;19.70;6.78;;;10.90;99.90;;;;;;5029181;28;21005;-69
2022/10/30 07:53:28;;;;;;;26.65;7.05;;;11.00;99.90;;;;;;5032546;28;20055;-71
2022/10/30 07:55:55;;;;;;;20.38;7.00;;;11.10;99.90;;;;;;5032210;28;20033;-73
2022/10/30 07:58:20;;;;;;;18.77;7.10;;;11.20;99.90;;;;;;4987943;28;20128;-74
2022/10/30 08:00:46;;;;;;;22.63;7.50;;;11.20;99.90;;;;;;4964637;28;20407;-73
2022/10/30 08:03:13;;;;;;;24.00;7.68;;;11.40;99.90;;;;;;4973814;28;20320;-74
2022/10/30 08:05:39;;;;;;;15.05;6.65;;;11.50;99.90;;;;;;4970199;28;20027;-74
2022/10/30 08:08:05;;;;;;;20.33;7.10;;;11.60;99.90;;;;;;4965692;28;20065;-74
2022/10/30 08:10:31;;;;;;;17.60;7.03;;;11.80;99.90;;;;;;4957482;28;20391;-74
2022/10/30 08:12:57;;;;;;;23.02;7.20;;;11.90;99.90;;;;;;4991040;28;20045;-72
2022/10/30 08:15:22;;;;;;;14.48;6.85;;;12.00;99.90;;;;;;4988301;28;20042;-72
2022/10/30 08:17:49;;;;;;;16.30;6.80;;;12.20;99.90;;;;;;4987106;28;20682;-72
2022/10/30 08:20:17;;;;;;;15.90;6.43;;;12.40;99.90;;;;;;4984830;28;20076;-73
2022/10/30 08:22:53;;;;;;;20.55;7.75;;;12.50;99.90;;;;;;4969930;28;20034;-73
2022/10/30 08:25:23;;;;;;;18.17;6.80;;;12.70;99.90;;;;;;4973122;28;20026;-72
2022/10/30 08:27:57;;;;;;;17.65;6.68;;;12.90;99.90;;;;;;4975763;28;20054;-72
2022/10/30 08:30:24;;;;;;;17.75;7.38;;;13.10;99.90;;;;;;4966417;28;20061;-71
2022/10/30 08:32:50;;;;;;;18.25;6.28;;;13.20;99.90;;;;;;4982414;28;20109;-71
2022/10/30 08:35:16;;;;;;;19.75;7.15;;;13.30;99.90;;;;;;4962981;28;20042;-71
2022/10/30 08:37:42;;;;;;;22.48;7.45;;;13.50;99.90;;;;;;4963015;28;20049;-73
2022/10/30 08:40:09;;;;;;;20.02;7.22;;;13.70;99.90;;;;;;4968460;28;20034;-72
2022/10/30 08:42:35;;;;;;;21.48;7.70;;;13.90;99.90;;;;;;4970344;28;20054;-74
2022/10/30 08:45:00;;;;;;;17.42;8.50;;;14.10;99.90;;;;;;4974131;28;20038;-72
2022/10/30 08:47:26;;;;;;;19.50;8.93;;;14.20;99.90;;;;;;4964048;28;20037;-71
2022/10/30 08:49:52;;;;;;;26.45;10.27;;;14.40;99.90;;;;;;4965528;28;20057;-73
2022/10/30 08:52:17;;;;;;;21.60;10.63;;;14.60;99.90;;;;;;4965936;28;20034;-72
2022/10/30 08:54:43;;;;;;;22.80;10.02;;;14.90;99.90;;;;;;4961492;28;20096;-72
2022/10/30 08:57:09;;;;;;;26.48;9.45;;;15.10;99.90;;;;;;4976636;28;21539;-72
2022/10/30 08:59:34;;;;;;;25.65;8.85;;;15.20;99.90;;;;;;4966576;28;20030;-72
2022/10/30 09:02:00;;;;;;;22.38;7.78;;;15.30;99.90;;;;;;4961151;28;20065;-71
2022/10/30 09:04:25;;;;;;;20.13;8.10;;;15.50;99.90;;;;;;4971441;28;20041;-71
2022/10/30 09:06:51;;;;;;;21.35;7.55;;;15.70;99.90;;;;;;4965845;28;20069;-72
2022/10/30 09:09:17;;;;;;;19.00;7.32;;;16.00;99.90;;;;;;4980003;28;20092;-73
2022/10/30 09:11:42;;;;;;;17.42;6.90;;;16.20;99.90;;;;;;4967429;28;20034;-74
2022/10/30 09:14:08;;;;;;;21.10;7.35;;;16.50;99.90;;;;;;4970421;28;20128;-73
2022/10/30 09:16:34;;;;;;;25.00;10.35;;;16.70;99.90;;;;;;4973403;28;20126;-73
2022/10/30 09:18:59;;;;;;;25.02;7.97;;;16.70;99.90;;;;;;4966782;28;20620;-68
2022/10/30 09:21:25;;;;;;;21.35;7.18;;;16.90;99.90;;;;;;4978043;28;20057;-67
2022/10/30 09:23:52;;;;;;;26.23;7.97;;;17.10;99.90;;;;;;4974933;28;20072;-67
2022/10/30 09:26:18;;;;;;;18.95;6.95;;;17.30;99.90;;;;;;4977613;28;20133;-65
2022/10/30 09:28:44;;;;;;;24.80;7.63;;;17.50;99.90;;;;;;4975572;28;20041;-68
2022/10/30 09:31:10;;;;;;;21.27;7.20;;;17.70;99.90;;;;;;4967269;28;20461;-67
2022/10/30 09:33:35;;;;;;;19.92;7.10;;;17.80;99.90;;;;;;4982726;28;20100;-65
2022/10/30 09:36:01;;;;;;;21.67;6.80;;;18.00;99.90;;;;;;4976460;28;20042;-70
2022/10/30 09:38:28;;;;;;;21.58;7.65;;;18.00;99.90;;;;;;4972603;28;20089;-67
2022/10/30 09:41:16;;;;;;;20.45;6.45;;;18.20;99.90;;;;;;4973288;28;20081;-68
2022/10/30 09:44:18;;;;;;;17.17;6.50;;;18.50;99.90;;;;;;4978675;28;20140;-66
2022/10/30 09:47:20;;;;;;;22.63;6.65;;;18.70;99.90;;;;;;4981985;28;20098;-65
2022/10/30 09:49:57;;;;;;;23.25;6.57;;;18.90;99.90;;;;;;4976874;28;20045;-66
2022/10/30 09:52:55;;;;;;;17.60;6.63;;;19.20;99.90;;;;;;4983357;28;20034;-67
2022/10/30 09:55:36;;;;;;;27.25;6.53;;;19.40;99.90;;;;;;4966141;28;20023;-68
2022/10/30 09:58:21;;;;;;;21.17;5.85;;;19.50;99.90;;;;;;4975560;28;20046;-69
2022/10/30 10:01:04;;;;;;;14.68;6.57;;;19.70;99.90;;;;;;4972962;28;20851;-68
2022/10/30 10:03:51;;;;;;;23.67;7.82;;;19.90;99.90;;;;;;4981058;28;20056;-68
2022/10/30 10:06:19;;;;;;;16.52;7.18;;;20.10;99.90;;;;;;4972815;28;20033;-68
2022/10/30 10:08:52;;;;;;;21.38;7.05;;;20.40;99.90;;;;;;4957240;28;20093;-68
2022/10/30 10:11:24;;;;;;;23.88;7.38;;;20.60;99.90;;;;;;4975130;28;20026;-69
2022/10/30 10:13:55;;;;;;;18.83;6.43;;;20.70;99.90;;;;;;4968403;28;20971;-68
2022/10/30 10:16:27;;;;;;;18.00;6.35;;;20.80;99.90;;;;;;4988136;28;20069;-67
2022/10/30 10:19:21;;;;;;;18.77;6.07;;;20.90;99.90;;;;;;4975985;28;20128;-70
2022/10/30 10:21:52;;;;;;;15.45;5.95;;;21.00;99.90;;;;;;4959634;28;20054;-69
2022/10/30 10:24:23;;;;;;;21.27;5.75;;;21.20;99.90;;;;;;4976392;28;20766;-65
2022/10/30 10:27:27;;;;;;;22.38;6.60;;;21.50;99.90;;;;;;4974493;28;20634;-65
2022/10/30 10:29:59;;;;;;;22.23;5.95;;;21.70;99.90;;;;;;4975986;28;20049;-69
2022/10/30 10:32:27;;;;;;;24.60;5.50;;;21.90;99.90;;;;;;4963411;28;20084;-70
2022/10/30 10:35:05;;;;;;;24.77;6.15;;;22.20;99.90;;;;;;4971726;28;20089;-68
2022/10/30 10:37:46;;;;;;;25.10;5.28;;;22.40;99.90;;;;;;4976087;28;20392;-68
2022/10/30 10:40:36;;;;;;;19.17;6.10;;;22.50;99.90;;;;;;4970489;28;20462;-70
2022/10/30 10:43:04;;;;;;;25.45;6.65;;;22.80;99.90;;;;;;4975455;28;20027;-69
2022/10/30 10:45:36;;;;;;;20.02;5.97;;;23.00;99.90;;;;;;4962781;28;20057;-69
2022/10/30 10:48:33;;;;;;;29.73;6.47;;;23.00;99.90;;;;;;4967759;28;20526;-69
2022/10/30 10:51:23;;;;;;;16.20;5.35;;;23.20;99.90;;;;;;4971160;28;20088;-70
2022/10/30 10:53:59;;;;;;;16.77;5.50;;;23.50;99.90;;;;;;4964702;28;20085;-72
2022/10/30 10:56:35;;;;;;;16.83;6.18;;;23.80;99.90;;;;;;4972479;28;20037;-74
2022/10/30 10:59:07;;;;;;;16.60;5.32;;;23.90;99.90;;;;;;4969522;28;20045;-73
2022/10/30 11:01:38;;;;;;;21.70;5.65;;;24.00;99.90;;;;;;4986215;28;20042;-70
2022/10/30 11:04:12;;;;;;;22.92;5.82;;;24.20;99.90;;;;;;4971098;28;20137;-72
2022/10/30 11:06:47;;;;;;;16.77;5.22;;;24.40;99.90;;;;;;4955795;28;20536;-68
2022/10/30 11:09:12;;;;;;;19.60;5.05;;;24.70;99.90;;;;;;4980009;28;20030;-68
2022/10/30 11:11:38;;;;;;;24.80;4.78;;;24.90;99.90;;;;;;4986338;28;20073;-73
2022/10/30 11:14:19;;;;;;;18.38;3.90;;;25.10;99.90;;;;;;4985553;28;20061;-70
2022/10/30 11:17:04;;;;;;;22.10;4.90;;;25.10;99.90;;;;;;4987327;28;20635;-68
2022/10/30 11:19:31;;;;;;;10.57;3.47;;;25.10;99.90;;;;;;5000732;28;20045;-71
2022/10/30 11:21:58;;;;;;;18.23;4.10;;;25.20;99.90;;;;;;5010167;28;20526;-72
2022/10/30 11:24:34;;;;;;;18.17;5.38;;;25.20;99.90;;;;;;5008015;28;20101;-70
2022/10/30 11:27:24;;;;;;;20.48;5.00;;;25.40;99.90;;;;;;4990140;28;20030;-74
2022/10/30 11:29:57;;;;;;;18.33;3.73;;;25.50;99.90;;;;;;4990792;28;20254;-68
2022/10/30 11:32:29;;;;;;;12.00;3.35;;;25.60;99.90;;;;;;4989301;28;20738;-68
2022/10/30 11:35:11;;;;;;;16.83;3.78;;;25.70;99.90;;;;;;4994799;28;20550;-68
2022/10/30 11:37:41;;;;;;;21.05;3.80;;;25.80;99.00;;;;;;5009946;28;20397;-71
2022/10/30 11:40:10;;;;;;;20.65;3.25;;;25.90;95.00;;;;;;5009338;28;20053;-70
2022/10/30 11:42:38;;;;;;;15.57;3.28;;;25.80;91.00;;;;;;5009442;28;20034;-68
2022/10/30 11:45:11;;;;;;;8.88;2.60;;;25.70;88.30;;;;;;5008766;28;20411;-70
2022/10/30 11:47:38;;;;;;;13.90;3.03;;;25.80;88.30;;;;;;5009876;28;20104;-71
2022/10/30 11:50:13;;;;;;;15.93;3.20;;;26.00;89.80;;;;;;4997094;28;20026;-70
2022/10/30 11:52:41;;;;;;;10.55;2.60;;;26.20;83.60;;;;;;4990464;28;20538;-71
2022/10/30 11:55:22;;;;;;;9.85;2.58;;;26.30;77.00;;;;;;4989867;28;20041;-71
2022/10/30 11:57:51;;;;;;;6.55;2.13;;;26.50;75.40;;;;;;4990073;28;20033;-69
2022/10/30 12:00:20;;;;;;;11.98;2.60;;;26.60;77.40;;;;;;4989240;28;20089;-71
2022/10/30 12:02:52;;;;;;;11.27;2.67;;;26.80;73.80;;;;;;4988056;28;20030;-71
2022/10/30 12:05:26;;;;;;;7.57;2.10;;;26.80;71.10;;;;;;4989437;28;20026;-70
2022/10/30 12:08:16;;;;;;;10.88;2.72;;;26.80;63.80;;;;;;4990069;28;20026;-71
2022/10/30 12:10:51;;;;;;;12.85;1.92;;;26.80;62.80;;;;;;4989220;28;20439;-71
2022/10/30 12:13:19;;;;;;;11.05;1.88;;;26.80;65.30;;;;;;4989190;28;20379;-71
2022/10/30 12:15:48;;;;;;;6.88;1.73;;;27.00;65.60;;;;;;4989728;28;20034;-69
2022/10/30 12:18:21;;;;;;;7.68;1.92;;;27.10;61.70;;;;;;4988432;28;20050;-70
2022/10/30 12:20:51;;;;;;;8.85;1.77;;;27.20;63.30;;;;;;4989884;28;20042;-71
2022/10/30 12:23:25;;;;;;;5.70;1.65;;;27.40;62.10;;;;;;4989294;28;20160;-69
2022/10/30 12:26:08;;;;;;;13.27;2.38;;;27.40;66.00;;;;;;4989795;28;20375;-70
2022/10/30 12:28:35;;;;;;;7.90;2.10;;;27.50;65.30;;;;;;4989877;28;20160;-69
2022/10/30 12:31:10;;;;;;;12.18;1.95;;;27.20;61.70;;;;;;4989348;28;20034;-72
2022/10/30 12:33:44;;;;;;;13.52;2.20;;;26.90;61.50;;;;;;4988872;28;20026;-68
2022/10/30 12:36:15;;;;;;;5.95;1.73;;;26.60;59.40;;;;;;4988903;28;20057;-68
2022/10/30 12:39:23;;;;;;;9.32;2.00;;;26.50;64.00;;;;;;4988312;28;20380;-70
2022/10/30 12:42:02;;;;;;;12.15;2.10;;;26.60;61.30;;;;;;4987895;28;20133;-71
2022/10/30 12:44:36;;;;;;;7.40;2.22;;;26.50;61.70;;;;;;4989255;28;20480;-68
2022/10/30 12:47:33;;;;;;;8.55;1.90;;;26.60;66.40;;;;;;4991070;28;20046;-71
2022/10/30 12:50:26;;;;;;;6.95;2.08;;;26.60;62.10;;;;;;5009519;28;20034;-69